Time;durP1;ratioP1;P1;durP2;ratioP2;P2;SDS_P1;SDS_P2;PMS_P1;PMS_P2;Temp;Humidity;BMP_temperature;BMP_pressure;BME280_temperature;BME280_humidity;BME280_pressure;Samples;Min_cycle;Max_cycle;Signal;HPM_P1;HPM_P2
2022/03/10 00:01:22;;;;;;;14.90;7.47;;;;;;;-0.49;100.00;96052.44;5052073;28;20217;-54
2022/03/10 00:03:47;;;;;;;12.33;8.00;;;;;;;-0.52;100.00;96048.50;5052077;28;20206;-56
2022/03/10 00:06:13;;;;;;;16.33;7.47;;;;;;;-0.55;100.00;96053.69;5052197;28;20258;-54
2022/03/10 00:08:38;;;;;;;12.80;7.13;;;;;;;-0.58;100.00;96055.13;5052083;28;20206;-50
2022/03/10 00:11:03;;;;;;;11.60;6.60;;;;;;;-0.59;100.00;96050.06;5051941;28;20198;-56
2022/03/10 00:13:30;;;;;;;14.50;7.73;;;;;;;-0.61;100.00;96054.97;5052020;28;20198;-54
2022/03/10 00:15:56;;;;;;;11.43;7.33;;;;;;;-0.62;100.00;96059.53;5053247;28;20179;-53
2022/03/10 00:18:22;;;;;;;11.57;6.50;;;;;;;-0.65;100.00;96054.81;5051906;28;20298;-55
2022/03/10 00:20:47;;;;;;;11.40;6.63;;;;;;;-0.68;100.00;96065.38;5051935;28;20282;-51
2022/03/10 00:23:12;;;;;;;11.80;7.30;;;;;;;-0.72;100.00;96054.50;5051882;28;20194;-53
2022/03/10 00:25:38;;;;;;;10.97;6.67;;;;;;;-0.75;100.00;96060.50;5051976;28;20193;-56
2022/03/10 00:28:03;;;;;;;9.20;6.47;;;;;;;-0.78;100.00;96061.13;5051628;28;20193;-56
2022/03/10 00:30:29;;;;;;;9.53;6.40;;;;;;;-0.81;100.00;96060.94;5052095;28;20194;-48
2022/03/10 00:32:54;;;;;;;10.90;6.70;;;;;;;-0.84;100.00;96062.38;5051599;28;20193;-49
2022/03/10 00:35:22;;;;;;;11.23;6.30;;;;;;;-0.89;100.00;96064.41;5053702;28;20190;-49
2022/03/10 00:37:48;;;;;;;10.23;6.47;;;;;;;-0.89;100.00;96061.75;5055479;28;20187;-48
2022/03/10 00:40:15;;;;;;;9.87;6.37;;;;;;;-0.91;100.00;96063.97;5055315;28;20245;-52
2022/03/10 00:42:41;;;;;;;9.07;5.80;;;;;;;-0.92;100.00;96060.47;5055450;28;20260;-48
2022/03/10 00:45:07;;;;;;;10.43;6.07;;;;;;;-0.92;100.00;96062.38;5055317;28;20194;-60
2022/03/10 00:47:34;;;;;;;9.77;6.10;;;;;;;-0.93;100.00;96063.47;5055108;28;20201;-47
2022/03/10 00:49:59;;;;;;;12.13;6.27;;;;;;;-0.95;100.00;96060.34;5054936;28;20273;-50
2022/03/10 00:52:25;;;;;;;8.33;5.77;;;;;;;-1.04;100.00;96067.56;5054708;28;20204;-48
2022/03/10 00:54:50;;;;;;;11.80;6.37;;;;;;;-1.08;100.00;96061.25;5055904;28;20186;-47
2022/03/10 00:57:19;;;;;;;10.10;6.43;;;;;;;-1.11;100.00;96061.88;5054729;28;20202;-50
2022/03/10 00:59:44;;;;;;;8.80;6.20;;;;;;;-1.12;100.00;96062.97;5054572;28;20197;-51
2022/03/10 01:02:09;;;;;;;10.00;6.27;;;;;;;-1.17;100.00;96063.91;5055077;28;20277;-55
2022/03/10 01:04:35;;;;;;;7.20;5.33;;;;;;;-1.18;100.00;96067.69;5054651;28;20182;-52
2022/03/10 01:07:00;;;;;;;8.30;5.17;;;;;;;-1.22;100.00;96060.59;5054624;28;20182;-54
2022/03/10 01:09:26;;;;;;;10.03;6.27;;;;;;;-1.22;100.00;96060.59;5054689;28;20209;-56
2022/03/10 01:11:51;;;;;;;11.27;6.60;;;;;;;-1.23;100.00;96059.00;5054570;28;20624;-54
2022/03/10 01:14:17;;;;;;;11.07;5.97;;;;;;;-1.25;100.00;96061.19;5054697;28;20217;-54
2022/03/10 01:16:42;;;;;;;9.50;6.03;;;;;;;-1.26;100.00;96062.31;5054543;28;20239;-56
2022/03/10 01:19:08;;;;;;;9.87;6.00;;;;;;;-1.27;100.00;96063.41;5054549;28;20186;-57
2022/03/10 01:21:34;;;;;;;10.73;5.97;;;;;;;-1.29;100.00;96060.25;5054824;28;20240;-60
2022/03/10 01:24:00;;;;;;;9.60;6.30;;;;;;;-1.33;100.00;96064.66;5054451;28;20202;-55
2022/03/10 01:26:25;;;;;;;9.50;6.10;;;;;;;-1.36;100.00;96060.72;5054209;28;20201;-50
2022/03/10 01:28:50;;;;;;;9.57;6.07;;;;;;;-1.37;100.00;96061.81;5054389;28;20197;-56
2022/03/10 01:31:16;;;;;;;10.17;5.90;;;;;;;-1.38;100.00;96052.19;5054251;28;20244;-56
2022/03/10 01:33:42;;;;;;;8.13;6.03;;;;;;;-1.39;100.00;96052.50;5054201;28;20193;-56
2022/03/10 01:36:07;;;;;;;9.50;5.93;;;;;;;-1.41;100.00;96057.41;5054048;28;20220;-54
2022/03/10 01:38:32;;;;;;;10.23;6.20;;;;;;;-1.41;100.00;96057.41;5054185;28;20187;-52
2022/03/10 01:40:58;;;;;;;10.70;6.23;;;;;;;-1.43;100.00;96046.19;5054090;28;20296;-47
2022/03/10 01:43:23;;;;;;;11.00;6.30;;;;;;;-1.46;100.00;96054.88;5053825;28;20189;-63
2022/03/10 01:45:48;;;;;;;9.77;5.70;;;;;;;-1.48;100.00;96044.47;5053585;28;20213;-62
2022/03/10 01:48:14;;;;;;;9.60;6.10;;;;;;;-1.48;100.00;96047.16;5055094;28;20186;-63
2022/03/10 01:50:39;;;;;;;9.37;6.00;;;;;;;-1.49;100.00;96050.13;5054043;28;20197;-62
2022/03/10 01:53:04;;;;;;;10.50;6.37;;;;;;;-1.51;100.00;96046.97;5053819;28;20194;-63
2022/03/10 01:55:31;;;;;;;9.63;5.80;;;;;;;-1.54;100.00;96045.69;5054153;28;20202;-63
2022/03/10 01:57:58;;;;;;;11.07;6.33;;;;;;;-1.58;100.00;96054.66;5053590;28;20190;-52
2022/03/10 02:00:23;;;;;;;8.90;5.77;;;;;;;-1.59;100.00;96053.06;5053776;28;20213;-59
2022/03/10 02:02:48;;;;;;;10.27;6.33;;;;;;;-1.62;100.00;96045.66;5054262;28;20216;-60
2022/03/10 02:05:14;;;;;;;9.10;5.97;;;;;;;-1.61;100.00;96047.22;5054317;28;20190;-60
2022/03/10 02:10:28;;;;;;;7.37;5.60;;;;;;;-1.68;100.00;96041.56;5055309;28;20212;-60
2022/03/10 02:12:55;;;;;;;12.93;6.13;;;;;;;-1.72;100.00;96052.09;5054652;28;20182;-59
2022/03/10 02:18:08;;;;;;;10.10;5.80;;;;;;;-1.76;100.00;96044.97;5054727;28;20215;-56
2022/03/10 02:20:35;;;;;;;6.93;5.33;;;;;;;-1.79;100.00;96049.06;5053482;28;20204;-68
2022/03/10 02:23:01;;;;;;;10.07;5.27;;;;;;;-1.82;100.00;96047.00;5053162;28;20190;-68
2022/03/10 02:25:27;;;;;;;9.60;5.70;;;;;;;-1.84;100.00;96048.41;5054086;28;20296;-69
2022/03/10 02:27:55;;;;;;;8.57;5.70;;;;;;;-1.87;100.00;96041.78;5054668;28;20178;-68
2022/03/10 02:30:22;;;;;;;8.10;5.97;;;;;;;-1.87;100.00;96044.47;5053247;28;20196;-68
2022/03/10 02:32:48;;;;;;;10.00;6.60;;;;;;;-1.85;100.00;96044.16;5053631;28;20208;-68
2022/03/10 02:35:14;;;;;;;8.70;5.47;;;;;;;-1.87;100.00;96049.03;5054135;28;20182;-56
2022/03/10 02:37:40;;;;;;;9.23;5.47;;;;;;;-1.87;100.00;96046.34;5053400;28;20429;-50
2022/03/10 02:40:06;;;;;;;9.00;5.63;;;;;;;-1.90;100.00;96041.63;5053225;28;20217;-53
2022/03/10 02:42:31;;;;;;;9.87;6.10;;;;;;;-1.91;100.00;96048.06;5052865;28;20255;-51
2022/03/10 02:44:57;;;;;;;13.47;6.97;;;;;;;-1.94;100.00;96054.03;5053529;28;20182;-53
2022/03/10 02:47:22;;;;;;;11.97;6.30;;;;;;;-1.95;100.00;96047.91;5053024;28;20193;-50
2022/03/10 02:49:48;;;;;;;11.10;6.37;;;;;;;-1.96;100.00;96053.56;5053047;28;20197;-53
2022/03/10 02:52:16;;;;;;;11.23;5.60;;;;;;;-1.97;100.00;96049.31;5053160;28;20189;-52
2022/03/10 02:54:42;;;;;;;7.00;4.90;;;;;;;-1.99;100.00;96046.13;5053242;28;20190;-54
2022/03/10 02:57:08;;;;;;;6.83;4.97;;;;;;;-1.99;100.00;96051.50;5051997;28;20216;-68
2022/03/10 02:59:34;;;;;;;6.43;5.00;;;;;;;-1.99;100.00;96046.13;5053576;28;20189;-68
2022/03/10 03:01:59;;;;;;;7.10;5.03;;;;;;;-2.00;100.00;96050.69;5052705;28;20213;-68
2022/03/10 03:04:25;;;;;;;6.90;4.83;;;;;;;-2.01;100.00;96053.69;5052927;28;20280;-68
2022/03/10 03:06:51;;;;;;;7.40;4.97;;;;;;;-2.02;100.00;96060.94;5053018;28;20204;-68
2022/03/10 03:09:16;;;;;;;7.10;5.03;;;;;;;-2.02;100.00;96057.44;5053260;28;20182;-68
2022/03/10 03:11:42;;;;;;;10.83;5.53;;;;;;;-2.02;100.00;96062.78;5052540;28;20185;-46
2022/03/10 03:14:07;;;;;;;7.10;4.63;;;;;;;-2.02;100.00;96068.16;5052828;28;20270;-53
2022/03/10 03:16:32;;;;;;;9.13;5.53;;;;;;;-2.05;100.00;96069.56;5052808;28;20211;-47
2022/03/10 03:18:58;;;;;;;7.60;4.93;;;;;;;-2.06;100.00;96069.84;5053325;28;20320;-51
2022/03/10 03:21:24;;;;;;;12.57;6.77;;;;;;;-2.10;100.00;96077.72;5052888;28;20212;-48
2022/03/10 03:23:50;;;;;;;10.37;5.80;;;;;;;-2.13;100.00;96082.88;5052665;28;20308;-48
2022/03/10 03:26:16;;;;;;;9.43;5.30;;;;;;;-2.21;100.00;96078.28;5052562;28;20185;-47
2022/03/10 03:28:42;;;;;;;9.30;5.03;;;;;;;-2.24;100.00;96098.38;5052993;28;20255;-47
2022/03/10 03:31:09;;;;;;;7.77;4.90;;;;;;;-2.26;100.00;96089.88;5052472;28;20280;-47
2022/03/10 03:33:34;;;;;;;7.60;5.20;;;;;;;-2.27;100.00;96087.50;5052466;28;20196;-62
2022/03/10 03:36:00;;;;;;;13.63;8.10;;;;;;;-2.27;100.00;96092.84;5052385;28;20185;-62
2022/03/10 03:38:25;;;;;;;11.03;6.20;;;;;;;-2.27;100.00;96095.53;5052310;28;20185;-62
2022/03/10 03:40:51;;;;;;;9.80;6.10;;;;;;;-2.30;100.00;96107.63;5052756;28;20205;-62
2022/03/10 03:43:16;;;;;;;8.17;5.30;;;;;;;-2.34;100.00;96103.97;5052013;28;20182;-62
2022/03/10 03:45:42;;;;;;;7.97;4.93;;;;;;;-2.39;100.00;96105.97;5052936;28;20264;-62
2022/03/10 03:48:07;;;;;;;6.27;4.50;;;;;;;-2.41;100.00;96108.19;5052329;28;20185;-54
2022/03/10 03:50:33;;;;;;;8.73;5.40;;;;;;;-2.45;100.00;96101.88;5052813;28;20646;-56
2022/03/10 03:52:58;;;;;;;8.40;5.37;;;;;;;-2.47;100.00;96110.19;5052026;28;20185;-56
2022/03/10 03:55:24;;;;;;;8.90;5.10;;;;;;;-2.42;100.00;96122.63;5052756;28;20186;-55
2022/03/10 03:57:49;;;;;;;11.93;5.47;;;;;;;-2.41;100.00;96122.31;5052286;28;20182;-56
2022/03/10 04:00:18;;;;;;;7.77;5.27;;;;;;;-2.41;100.00;96124.22;5051954;28;20209;-56
2022/03/10 04:02:44;;;;;;;9.03;5.13;;;;;;;-2.41;100.00;96118.88;5052167;28;20225;-56
2022/03/10 04:05:10;;;;;;;8.13;5.23;;;;;;;-2.44;100.00;96124.81;5052098;28;20190;-55
2022/03/10 04:07:36;;;;;;;8.37;4.73;;;;;;;-2.47;100.00;96122.75;5052088;28;20194;-68
2022/03/10 04:10:03;;;;;;;7.70;5.67;;;;;;;-2.52;100.00;96122.88;5055029;28;20257;-54
2022/03/10 04:12:28;;;;;;;7.63;4.83;;;;;;;-2.55;100.00;96131.50;5055407;28;20212;-52
2022/03/10 04:14:54;;;;;;;8.27;5.17;;;;;;;-2.54;100.00;96130.38;5056366;28;20189;-50
2022/03/10 04:17:19;;;;;;;7.47;4.80;;;;;;;-2.57;100.00;96125.66;5055838;28;20301;-53
2022/03/10 04:19:44;;;;;;;9.30;5.40;;;;;;;-2.58;100.00;96124.06;5056035;28;20182;-49
2022/03/10 04:22:10;;;;;;;8.50;5.30;;;;;;;-2.60;100.00;96131.59;5055423;28;20255;-52
2022/03/10 04:24:35;;;;;;;7.97;4.77;;;;;;;-2.63;100.00;96137.56;5055364;28;20186;-51
2022/03/10 04:27:00;;;;;;;8.83;5.50;;;;;;;-2.65;100.00;96134.38;5055671;28;20185;-50
2022/03/10 04:29:26;;;;;;;8.50;5.17;;;;;;;-2.67;100.00;96147.25;5055643;28;20190;-60
2022/03/10 04:31:51;;;;;;;10.43;5.70;;;;;;;-2.69;100.00;96138.75;5055234;28;20280;-60
2022/03/10 04:34:16;;;;;;;10.73;5.10;;;;;;;-2.68;100.00;96140.31;5054907;28;20186;-60
2022/03/10 04:36:42;;;;;;;12.27;5.60;;;;;;;-2.68;100.00;96140.31;5055088;28;20181;-60
2022/03/10 04:39:07;;;;;;;8.33;5.23;;;;;;;-2.65;100.00;96139.72;5055037;28;20188;-61
2022/03/10 04:41:34;;;;;;;7.60;5.40;;;;;;;-2.66;100.00;96136.25;5054978;28;20209;-60
2022/03/10 04:43:59;;;;;;;7.93;5.30;;;;;;;-2.68;100.00;96140.31;5055071;28;20639;-50
2022/03/10 04:46:25;;;;;;;11.50;5.10;;;;;;;-2.68;100.00;96135.78;5054953;28;20324;-60
2022/03/10 04:48:50;;;;;;;10.37;5.57;;;;;;;-2.69;100.00;96133.41;5055204;28;20216;-60
2022/03/10 04:51:15;;;;;;;11.50;5.70;;;;;;;-2.70;100.00;96142.53;5054718;28;20201;-60
2022/03/10 04:53:41;;;;;;;9.60;5.50;;;;;;;-2.74;100.00;96146.88;5054891;28;20276;-60
2022/03/10 04:56:06;;;;;;;10.10;5.70;;;;;;;-2.74;100.00;96149.56;5055149;28;20276;-59
2022/03/10 04:58:32;;;;;;;9.60;5.37;;;;;;;-2.77;100.00;96152.81;5055137;28;20289;-60
2022/03/10 05:00:57;;;;;;;11.53;5.87;;;;;;;-2.82;100.00;96144.91;5054881;28;20202;-60
2022/03/10 05:03:22;;;;;;;8.83;5.17;;;;;;;-2.85;100.00;96134.84;5054500;28;20213;-66
2022/03/10 05:05:48;;;;;;;7.77;5.20;;;;;;;-2.89;100.00;96144.53;5054493;28;20202;-50
2022/03/10 05:08:14;;;;;;;8.93;5.53;;;;;;;-2.90;100.00;96148.28;5054421;28;20253;-49
2022/03/10 05:10:39;;;;;;;8.00;5.10;;;;;;;-2.88;100.00;96146.13;5055115;28;20185;-47
2022/03/10 05:13:04;;;;;;;8.70;5.23;;;;;;;-2.91;100.00;96147.50;5054449;28;20269;-48
2022/03/10 05:15:33;;;;;;;7.07;4.73;;;;;;;-2.92;100.00;96145.16;5054488;28;20209;-49
2022/03/10 05:18:00;;;;;;;7.40;4.93;;;;;;;-2.94;100.00;96145.44;5054148;28;20217;-49
2022/03/10 05:20:26;;;;;;;8.80;5.17;;;;;;;-2.95;100.00;96135.06;5053961;28;20229;-59
2022/03/10 05:22:56;;;;;;;8.47;5.20;;;;;;;-2.95;100.00;96135.06;5054349;28;20192;-68
2022/03/10 05:25:24;;;;;;;7.37;5.10;;;;;;;-2.97;100.00;96132.69;5053960;28;20190;-68
2022/03/10 05:27:51;;;;;;;11.73;5.47;;;;;;;-2.96;100.00;96134.25;5054661;28;20190;-67
2022/03/10 05:30:17;;;;;;;8.73;5.13;;;;;;;-2.95;100.00;96135.06;5054716;28;20189;-66
2022/03/10 05:32:43;;;;;;;7.87;5.37;;;;;;;-2.94;100.00;96141.97;5054101;28;20181;-67
2022/03/10 05:35:10;;;;;;;9.80;5.23;;;;;;;-2.92;100.00;96134.47;5054087;28;20197;-67
2022/03/10 05:37:37;;;;;;;11.00;5.40;;;;;;;-2.87;100.00;96137.00;5054209;28;20242;-67
2022/03/10 05:40:05;;;;;;;13.07;5.37;;;;;;;-2.88;100.00;96135.44;5053992;28;20193;-60
2022/03/10 05:42:31;;;;;;;11.23;6.00;;;;;;;-2.86;100.00;96130.56;5053803;28;20190;-47
2022/03/10 05:44:56;;;;;;;8.10;5.33;;;;;;;-2.81;100.00;96141.16;5054446;28;20188;-48
2022/03/10 05:47:21;;;;;;;10.17;5.30;;;;;;;-2.72;100.00;96140.16;5053886;28;20244;-47
2022/03/10 05:49:49;;;;;;;9.03;5.93;;;;;;;-2.56;100.00;96144.06;5053705;28;20174;-49
2022/03/10 05:52:14;;;;;;;8.83;5.33;;;;;;;-2.32;100.00;96133.88;5053827;28;20186;-47
2022/03/10 05:54:39;;;;;;;8.63;5.10;;;;;;;-2.02;100.00;96138.50;5053876;28;20185;-46
2022/03/10 05:57:05;;;;;;;8.87;5.43;;;;;;;-1.57;100.00;96129.28;5053734;28;20280;-64
2022/03/10 05:59:30;;;;;;;11.30;5.77;;;;;;;-0.93;100.00;96138.50;5054291;28;20236;-60
2022/03/10 06:01:55;;;;;;;9.83;5.50;;;;;;;-0.21;100.00;96140.31;5053558;28;20300;-60
2022/03/10 06:04:21;;;;;;;8.80;4.97;;;;;;;0.78;100.00;96133.78;5053723;28;20186;-60
2022/03/10 06:06:46;;;;;;;10.10;5.67;;;;;;;1.85;100.00;96125.69;5053701;28;20184;-60
2022/03/10 06:09:11;;;;;;;8.47;5.77;;;;;;;2.56;100.00;96123.56;5053729;28;20188;-60
2022/03/10 06:11:37;;;;;;;7.83;5.57;;;;;;;3.24;100.00;96134.28;5053849;28;20192;-60
2022/03/10 06:14:03;;;;;;;11.37;6.00;;;;;;;3.41;100.00;96142.16;5053437;28;20232;-60
2022/03/10 06:16:29;;;;;;;15.07;8.40;;;;;;;3.47;99.66;96143.50;5053328;28;20272;-49
2022/03/10 06:18:54;;;;;;;9.67;6.37;;;;;;;3.72;96.38;96140.78;5053275;28;20185;-48
2022/03/10 06:21:21;;;;;;;9.90;7.30;;;;;;;4.13;92.31;96151.22;5053774;28;20210;-52
2022/03/10 06:23:47;;;;;;;11.40;6.90;;;;;;;4.38;87.84;96144.59;5053304;28;20194;-48
2022/03/10 06:26:12;;;;;;;10.80;6.27;;;;;;;4.65;85.86;96149.97;5053670;28;20259;-48
2022/03/10 06:28:38;;;;;;;15.33;7.13;;;;;;;5.19;83.40;96147.50;5053987;28;20193;-51
2022/03/10 06:31:04;;;;;;;11.43;6.87;;;;;;;5.25;80.14;96149.56;5053046;28;20253;-47
2022/03/10 06:33:29;;;;;;;9.27;6.63;;;;;;;5.48;76.50;96155.16;5053811;28;20185;-53
2022/03/10 06:35:54;;;;;;;8.33;6.70;;;;;;;5.63;75.30;96159.75;5053551;28;20178;-61
2022/03/10 06:38:19;;;;;;;13.00;8.00;;;;;;;6.21;72.60;96166.88;5053206;28;20190;-67
2022/03/10 06:40:45;;;;;;;10.03;6.60;;;;;;;6.91;68.60;96156.63;5053410;28;20208;-68
2022/03/10 06:43:10;;;;;;;14.63;7.20;;;;;;;7.36;64.42;96151.19;5053083;28;20215;-67
2022/03/10 06:45:35;;;;;;;10.60;7.17;;;;;;;7.33;62.94;96149.22;5053140;28;20188;-69
2022/03/10 06:48:01;;;;;;;11.00;7.13;;;;;;;7.01;64.02;96156.81;5053053;28;20181;-67
2022/03/10 06:50:28;;;;;;;9.80;6.70;;;;;;;7.00;64.60;96152.53;5053998;28;20292;-68
2022/03/10 06:52:56;;;;;;;10.23;6.90;;;;;;;7.01;64.77;96145.97;5053827;28;20189;-57
2022/03/10 06:55:24;;;;;;;10.87;6.77;;;;;;;7.65;62.03;96142.34;5052893;28;20189;-57
2022/03/10 06:57:51;;;;;;;11.70;6.90;;;;;;;8.53;58.36;96144.34;5053221;28;20272;-56
2022/03/10 07:00:17;;;;;;;10.80;6.80;;;;;;;9.45;53.97;96135.91;5052980;28;20205;-53
2022/03/10 07:02:42;;;;;;;12.80;6.80;;;;;;;9.47;52.27;96134.38;5052764;28;20202;-54
2022/03/10 07:05:08;;;;;;;11.50;6.57;;;;;;;10.36;49.25;96130.28;5052600;28;20189;-57
2022/03/10 07:07:34;;;;;;;10.93;6.50;;;;;;;10.66;48.21;96133.53;5052865;28;20177;-58
2022/03/10 07:09:59;;;;;;;12.17;6.93;;;;;;;10.76;46.72;96133.56;5052554;28;20182;-62
2022/03/10 07:12:28;;;;;;;13.23;7.00;;;;;;;10.79;50.00;96132.81;5053120;28;20185;-53
2022/03/10 07:14:53;;;;;;;11.03;6.83;;;;;;;11.18;48.26;96113.75;5052302;28;20252;-58
2022/03/10 07:17:19;;;;;;;12.60;7.00;;;;;;;10.88;47.26;96118.75;5053238;28;20220;-57
2022/03/10 07:19:45;;;;;;;7.87;6.77;;;;;;;10.95;46.21;96129.69;5052996;28;20186;-56
2022/03/10 07:22:12;;;;;;;10.77;6.60;;;;;;;10.10;46.84;96134.06;5052649;28;20300;-56
2022/03/10 07:24:37;;;;;;;10.30;6.77;;;;;;;10.06;47.52;96134.03;5052367;28;20210;-57
2022/03/10 07:27:03;;;;;;;13.57;6.97;;;;;;;10.42;48.10;96128.75;5052889;28;20212;-57
2022/03/10 07:29:28;;;;;;;11.33;6.73;;;;;;;9.45;49.44;96136.72;5052485;28;20231;-67
2022/03/10 07:31:53;;;;;;;11.80;7.10;;;;;;;9.58;50.02;96131.75;5052279;28;20221;-57
2022/03/10 07:34:19;;;;;;;10.07;7.00;;;;;;;10.09;48.51;96133.28;5052195;28;20193;-57
2022/03/10 07:36:44;;;;;;;15.60;7.23;;;;;;;10.17;48.24;96133.31;5052441;28;20177;-56
2022/03/10 07:39:10;;;;;;;12.87;7.57;;;;;;;10.00;49.39;96132.03;5052177;28;20193;-56
2022/03/10 07:41:35;;;;;;;12.30;7.97;;;;;;;10.76;47.09;96122.66;5052114;28;20210;-55
2022/03/10 07:44:00;;;;;;;10.57;7.67;;;;;;;11.46;45.69;96120.00;5054237;28;20202;-56
2022/03/10 07:46:26;;;;;;;12.67;7.80;;;;;;;12.86;42.96;96118.91;5055475;28;20181;-46
2022/03/10 07:48:51;;;;;;;8.47;7.30;;;;;;;13.17;40.51;96115.22;5055762;28;20239;-51
2022/03/10 07:51:17;;;;;;;9.50;8.07;;;;;;;13.73;39.40;96125.75;5056232;28;20193;-56
2022/03/10 07:53:43;;;;;;;10.07;8.07;;;;;;;13.30;39.73;96121.81;5055603;28;20181;-56
2022/03/10 07:56:08;;;;;;;13.80;10.20;;;;;;;14.35;38.06;96117.34;5055705;28;20193;-56
2022/03/10 07:58:34;;;;;;;10.20;8.23;;;;;;;14.28;37.71;96118.19;5055394;28;20193;-56
2022/03/10 08:00:59;;;;;;;14.27;10.60;;;;;;;13.91;39.01;96120.88;5055449;28;20305;-56
2022/03/10 08:03:25;;;;;;;10.73;8.30;;;;;;;15.02;37.43;96112.59;5055939;28;20213;-55
2022/03/10 08:05:51;;;;;;;8.70;7.77;;;;;;;13.18;38.77;96114.03;5055755;28;20189;-61
2022/03/10 08:08:17;;;;;;;12.83;7.40;;;;;;;13.66;38.45;96117.56;5055518;28;20193;-53
2022/03/10 08:10:43;;;;;;;9.40;7.53;;;;;;;13.16;38.62;96108.19;5055683;28;20185;-53
2022/03/10 08:13:08;;;;;;;14.17;8.37;;;;;;;13.68;38.30;96107.00;5055518;28;20177;-45
2022/03/10 08:15:33;;;;;;;12.43;8.40;;;;;;;14.43;37.29;96108.63;5055505;28;20265;-51
2022/03/10 08:17:59;;;;;;;12.00;8.17;;;;;;;15.71;36.49;96098.97;5055322;28;20189;-53
2022/03/10 08:20:25;;;;;;;10.17;7.47;;;;;;;15.72;34.64;96108.00;5055319;28;20212;-51
2022/03/10 08:22:50;;;;;;;10.00;7.50;;;;;;;14.73;35.77;96103.16;5055146;28;20174;-51
2022/03/10 08:25:16;;;;;;;10.87;7.53;;;;;;;14.21;38.11;96107.28;5055316;28;20280;-66
2022/03/10 08:27:43;;;;;;;11.03;7.70;;;;;;;14.31;36.51;96111.13;5055192;28;20212;-61
2022/03/10 08:30:09;;;;;;;9.87;7.07;;;;;;;14.31;37.34;96105.63;5056436;28;20178;-61
2022/03/10 08:32:34;;;;;;;8.03;6.70;;;;;;;14.48;36.44;96110.91;5055318;28;20265;-62
2022/03/10 08:34:59;;;;;;;8.57;7.13;;;;;;;14.06;37.49;96105.06;5055938;28;20228;-62
2022/03/10 08:37:25;;;;;;;10.13;7.13;;;;;;;14.15;37.56;96103.41;5054955;28;20213;-61
2022/03/10 08:39:50;;;;;;;10.90;7.40;;;;;;;14.13;37.87;96102.25;5056406;28;20196;-62
2022/03/10 08:42:16;;;;;;;9.67;6.83;;;;;;;14.91;36.84;96100.16;5055091;28;20202;-62
2022/03/10 08:44:41;;;;;;;8.53;6.37;;;;;;;13.79;38.10;96099.44;5055548;28;20235;-46
2022/03/10 08:47:06;;;;;;;9.00;7.10;;;;;;;15.18;36.10;96092.69;5054823;28;20185;-45
2022/03/10 08:49:32;;;;;;;9.60;7.10;;;;;;;16.08;35.23;96084.94;5055537;28;20186;-46
2022/03/10 08:51:57;;;;;;;9.53;6.90;;;;;;;15.57;35.27;96088.19;5055629;28;20190;-45
2022/03/10 08:54:23;;;;;;;9.80;6.80;;;;;;;16.07;34.40;96083.38;5054802;28;20273;-46
2022/03/10 08:56:50;;;;;;;10.07;7.23;;;;;;;15.81;35.60;96084.22;5054342;28;20186;-45
2022/03/10 08:59:15;;;;;;;7.17;5.90;;;;;;;15.79;34.82;96083.09;5055378;28;20186;-45
2022/03/10 09:01:40;;;;;;;7.83;6.37;;;;;;;15.60;34.16;96075.56;5054982;28;20259;-45
2022/03/10 09:04:06;;;;;;;8.93;6.70;;;;;;;15.28;35.00;96087.03;5055233;28;20181;-59
2022/03/10 09:06:32;;;;;;;7.13;6.27;;;;;;;15.08;35.19;96069.63;5054840;28;20279;-59
2022/03/10 09:08:58;;;;;;;9.80;6.30;;;;;;;16.33;34.10;96065.94;5054588;28;20190;-59
2022/03/10 09:11:24;;;;;;;10.37;6.50;;;;;;;16.55;33.37;96063.56;5054514;28;20204;-60
2022/03/10 09:13:50;;;;;;;8.77;5.97;;;;;;;17.10;32.50;96062.78;5054510;28;20186;-60
2022/03/10 09:16:17;;;;;;;7.53;6.73;;;;;;;16.10;34.82;96059.72;5055588;28;20182;-60
2022/03/10 09:18:45;;;;;;;7.53;6.20;;;;;;;15.89;33.90;96054.59;5054183;28;20201;-59
2022/03/10 09:21:10;;;;;;;6.90;6.00;;;;;;;16.57;33.77;96060.41;5055565;28;20236;-54
2022/03/10 09:23:36;;;;;;;8.30;6.47;;;;;;;16.26;33.59;96063.34;5054539;28;20190;-60
2022/03/10 09:26:01;;;;;;;7.93;6.07;;;;;;;16.58;33.50;96050.91;5054227;28;20582;-59
2022/03/10 09:28:27;;;;;;;6.47;5.70;;;;;;;16.24;33.41;96068.47;5054212;28;20194;-60
2022/03/10 09:30:52;;;;;;;6.80;6.10;;;;;;;15.37;34.12;96065.28;5054289;28;20221;-59
2022/03/10 09:33:17;;;;;;;6.87;5.50;;;;;;;15.40;35.70;96067.22;5054163;28;20190;-59
2022/03/10 09:35:43;;;;;;;6.57;5.67;;;;;;;13.96;35.93;96076.53;5055370;28;20190;-59
2022/03/10 09:38:08;;;;;;;6.73;6.03;;;;;;;15.32;35.10;96062.22;5054153;28;20186;-65
2022/03/10 09:40:33;;;;;;;6.60;5.87;;;;;;;15.52;35.08;96072.13;5054144;28;20237;-63
2022/03/10 09:42:59;;;;;;;8.83;6.47;;;;;;;15.19;35.42;96059.25;5054097;28;20189;-63
2022/03/10 09:45:28;;;;;;;7.40;6.03;;;;;;;15.65;34.77;96066.81;5053999;28;20190;-64
2022/03/10 09:47:54;;;;;;;7.17;5.70;;;;;;;15.69;34.31;96057.28;5053981;28;20182;-64
2022/03/10 09:50:19;;;;;;;6.23;5.37;;;;;;;15.86;33.96;96066.44;5054481;28;20320;-65
2022/03/10 09:52:46;;;;;;;6.57;5.80;;;;;;;15.30;34.87;96070.88;5053859;28;20202;-64
2022/03/10 09:55:14;;;;;;;8.47;6.00;;;;;;;15.47;34.73;96056.09;5053981;28;20193;-55
2022/03/10 09:57:42;;;;;;;7.63;6.17;;;;;;;14.62;35.48;96072.25;5053845;28;20194;-54
2022/03/10 10:00:10;;;;;;;9.73;6.00;;;;;;;14.81;36.44;96068.84;5054294;28;20193;-49
2022/03/10 10:02:37;;;;;;;8.43;6.37;;;;;;;15.13;34.98;96063.69;5053492;28;20224;-44
2022/03/10 10:05:17;;;;;;;6.70;6.00;;;;;;;15.54;34.47;96069.75;5053739;28;20170;-45
2022/03/10 10:07:59;;;;;;;7.63;6.70;;;;;;;15.28;34.85;96064.25;5053766;28;20185;-44
2022/03/10 10:10:29;;;;;;;6.37;5.40;;;;;;;15.54;34.53;96049.69;5053592;28;20182;-45
2022/03/10 10:12:54;;;;;;;8.33;5.97;;;;;;;14.80;34.94;96078.31;5053259;28;20192;-44
2022/03/10 10:15:20;;;;;;;7.60;5.50;;;;;;;14.39;35.03;96068.63;5053458;28;20173;-45
2022/03/10 10:17:55;;;;;;;6.30;5.50;;;;;;;14.64;34.68;96063.59;5053163;28;20264;-51
2022/03/10 10:20:21;;;;;;;8.63;5.97;;;;;;;15.35;34.93;96059.44;5053711;28;20204;-55
2022/03/10 10:22:48;;;;;;;6.47;5.50;;;;;;;15.92;32.79;96070.28;5053487;28;20174;-56
2022/03/10 10:25:20;;;;;;;6.57;5.97;;;;;;;15.60;33.44;96059.81;5053844;28;20332;-52
2022/03/10 10:27:46;;;;;;;8.00;5.77;;;;;;;15.83;32.97;96062.56;5053810;28;20189;-52
2022/03/10 10:30:12;;;;;;;6.97;5.80;;;;;;;15.97;33.15;96056.81;5053408;28;20339;-54
2022/03/10 10:32:46;;;;;;;7.10;6.17;;;;;;;15.75;33.81;96050.13;5053176;28;20186;-45
2022/03/10 10:35:20;;;;;;;6.40;5.30;;;;;;;15.66;32.95;96060.88;5053433;28;20269;-49
2022/03/10 10:37:49;;;;;;;7.40;5.40;;;;;;;15.69;32.62;96049.03;5053820;28;20194;-47
2022/03/10 10:40:24;;;;;;;9.30;5.80;;;;;;;16.10;32.07;96046.69;5053255;28;20190;-50
2022/03/10 10:42:49;;;;;;;6.93;5.87;;;;;;;15.86;31.92;96047.94;5052782;28;20267;-46
2022/03/10 10:45:41;;;;;;;6.70;5.53;;;;;;;16.31;31.87;96049.06;5052939;28;20262;-47
2022/03/10 10:48:11;;;;;;;8.07;6.10;;;;;;;15.31;32.68;96044.16;5050902;28;20280;-46
2022/03/10 10:50:44;;;;;;;6.73;5.20;;;;;;;15.65;31.84;96045.56;5053097;28;20177;-54
2022/03/10 10:53:30;;;;;;;7.20;5.40;;;;;;;15.82;32.47;96036.22;5053577;28;20190;-45
2022/03/10 10:55:57;;;;;;;6.67;5.73;;;;;;;16.27;31.88;96026.28;5053529;28;20192;-46
2022/03/10 10:58:24;;;;;;;6.67;5.70;;;;;;;16.24;31.32;96026.34;5052923;28;20273;-47
2022/03/10 11:00:50;;;;;;;8.37;6.50;;;;;;;15.35;32.57;96026.41;5052639;28;20293;-48
2022/03/10 11:03:20;;;;;;;6.13;5.47;;;;;;;15.78;32.20;96021.72;5052671;28;20236;-48
2022/03/10 11:05:47;;;;;;;6.13;5.53;;;;;;;16.15;31.28;96023.41;5053224;28;20236;-49
2022/03/10 11:08:12;;;;;;;8.73;5.90;;;;;;;16.35;31.00;96011.16;5052669;28;20240;-49
2022/03/10 11:10:39;;;;;;;9.07;6.07;;;;;;;16.30;31.17;96014.44;5052697;28;20213;-48
2022/03/10 11:13:04;;;;;;;7.33;5.60;;;;;;;16.11;31.22;96012.41;5052971;28;20269;-60
2022/03/10 11:15:30;;;;;;;7.97;6.13;;;;;;;15.37;31.10;96013.00;5052945;28;20221;-60
2022/03/10 11:17:56;;;;;;;7.47;5.50;;;;;;;15.81;31.62;96009.84;5052134;28;20217;-59
2022/03/10 11:20:22;;;;;;;8.00;6.20;;;;;;;15.08;31.95;95995.34;5052420;28;20241;-60
2022/03/10 11:23:38;;;;;;;6.53;5.73;;;;;;;14.78;32.52;96014.69;5052477;28;20193;-60
2022/03/10 11:26:19;;;;;;;7.27;5.43;;;;;;;14.77;31.59;95996.63;5019464;28;20247;-60
2022/03/10 11:28:46;;;;;;;8.93;5.73;;;;;;;13.78;33.37;96001.81;5052656;28;20211;-57